Terminal Aerodrome Forecast
Issued by NWS

Home | Current Version | Previous Version | Text Only | Print | Product List | Glossary On
Versions: 1 2 3 4 5 6 7 8 9 10 11 12
000
FTUS46 KSEW 070500
TAFHQM
TAF
KHQM 070520Z 0706/0806 09005KT P6SM SCT250
     FM072100 32005KT P6SM SKC
     FM080300 03005KT P6SM SKC=

USA.gov is the U.S. government's official web portal to all federal, state and local government web resources and services.